Time;durP1;ratioP1;P1;durP2;ratioP2;P2;SDS_P1;SDS_P2;PMS_P1;PMS_P2;Temp;Humidity;BMP_temperature;BMP_pressure;BME280_temperature;BME280_humidity;BME280_pressure;Samples;Min_cycle;Max_cycle;Signal;HPM_P1;HPM_P2
2022/05/01 00:02:49;;;;;;;7.28;3.75;;;;;;;6.78;83.44;100678.68;1707153;84;21203;-83
2022/05/01 00:05:55;;;;;;;7.83;4.00;;;;;;;6.72;83.46;100677.87;1706754;84;21187;-84
2022/05/01 00:09:00;;;;;;;17.62;4.12;;;;;;;6.65;83.62;100681.67;1707801;84;21179;-84
2022/05/01 00:12:07;;;;;;;11.73;4.47;;;;;;;6.60;83.86;100679.38;1706555;84;21778;-84
2022/05/01 00:15:14;;;;;;;8.65;4.35;;;;;;;6.54;84.02;100681.78;1706439;84;21203;-83
2022/05/01 00:18:20;;;;;;;8.93;4.45;;;;;;;6.46;84.29;100681.15;1706438;84;21223;-84
2022/05/01 00:21:25;;;;;;;9.33;3.80;;;;;;;6.40;84.60;100673.57;1707891;84;21185;-84
2022/05/01 00:24:31;;;;;;;8.28;4.10;;;;;;;6.36;84.81;100679.78;1707736;84;21167;-84
2022/05/01 00:27:36;;;;;;;10.05;4.67;;;;;;;6.35;84.92;100686.69;1707506;84;21210;-84
2022/05/01 00:30:44;;;;;;;7.67;4.45;;;;;;;6.32;84.93;100688.34;1707986;84;21183;-84
2022/05/01 00:37:15;;;;;;;6.42;4.03;;;;;;;6.28;84.91;100687.77;1681840;84;21234;-83
2022/05/01 00:40:22;;;;;;;4.78;3.65;;;;;;;6.26;84.91;100684.34;1707705;84;21164;-83
2022/05/01 00:43:28;;;;;;;12.78;4.33;;;;;;;6.25;84.95;100688.53;1706847;84;21194;-83
2022/05/01 00:46:34;;;;;;;10.85;4.30;;;;;;;6.22;85.19;100691.05;1706597;84;21219;-84
2022/05/01 00:49:39;;;;;;;5.75;4.10;;;;;;;6.19;85.50;100688.59;1707937;84;21211;-84
2022/05/01 00:52:46;;;;;;;8.63;4.17;;;;;;;6.14;85.61;100685.44;1707265;84;21743;-79
2022/05/01 00:55:52;;;;;;;10.05;5.05;;;;;;;6.10;85.71;100686.70;1706616;84;21223;-79
2022/05/01 00:58:58;;;;;;;9.25;5.00;;;;;;;6.07;85.54;100685.61;1707986;84;21175;-83
2022/05/01 01:02:03;;;;;;;11.15;5.33;;;;;;;6.04;85.19;100688.13;1708032;84;21219;-84
2022/05/01 01:05:10;;;;;;;7.37;4.28;;;;;;;6.03;85.01;100687.77;1707007;84;21242;-84
2022/05/01 01:08:15;;;;;;;5.97;4.35;;;;;;;6.04;84.85;100688.63;1708048;84;21241;-84
2022/05/01 01:11:21;;;;;;;11.35;4.30;;;;;;;6.03;84.96;100688.27;1707792;84;21179;-84
2022/05/01 01:14:30;;;;;;;9.53;5.75;;;;;;;6.00;85.34;100677.67;1708193;84;21784;-84
2022/05/01 01:17:35;;;;;;;10.32;4.30;;;;;;;5.97;85.24;100683.38;1692720;84;21795;-84
2022/05/01 01:20:44;;;;;;;9.18;4.92;;;;;;;5.93;85.23;100680.09;1708038;84;21227;-84
2022/05/01 01:23:52;;;;;;;6.72;4.60;;;;;;;5.87;85.10;100685.52;1707992;84;21242;-84
2022/05/01 01:26:58;;;;;;;8.93;4.33;;;;;;;5.84;85.03;100686.31;1708056;84;21763;-84
2022/05/01 01:33:28;;;;;;;8.48;4.37;;;;;;;5.83;84.77;100684.56;1707750;84;21349;-84
2022/05/01 01:36:37;;;;;;;8.00;4.42;;;;;;;5.80;84.89;100688.44;1707873;84;21258;-83
2022/05/01 01:39:43;;;;;;;5.67;4.23;;;;;;;5.80;84.89;100685.72;1708182;84;21293;-83
2022/05/01 01:42:48;;;;;;;9.45;4.70;;;;;;;5.78;85.10;100690.41;1707177;84;21203;-83
2022/05/01 01:45:54;;;;;;;6.12;4.20;;;;;;;5.75;85.09;100693.41;1707445;84;21182;-84
2022/05/01 01:49:01;;;;;;;9.75;4.87;;;;;;;5.74;84.89;100694.42;1707934;84;21199;-84
2022/05/01 01:52:06;;;;;;;10.35;4.67;;;;;;;5.72;84.52;100702.31;1708147;84;21219;-84
2022/05/01 01:55:13;;;;;;;13.28;5.15;;;;;;;5.66;84.60;100702.38;1707833;84;21791;-84
2022/05/01 01:58:18;;;;;;;7.08;4.42;;;;;;;5.66;84.68;100715.94;1706826;84;21254;-84
2022/05/01 02:01:23;;;;;;;8.53;4.33;;;;;;;5.66;84.60;100715.94;1707832;84;21199;-84
2022/05/01 02:04:29;;;;;;;6.42;4.40;;;;;;;5.66;84.74;100722.73;1707250;82;21274;-84
2022/05/01 02:07:34;;;;;;;6.75;4.47;;;;;;;5.66;84.98;100726.80;1706569;84;21207;-84
2022/05/01 02:10:40;;;;;;;5.10;3.92;;;;;;;5.66;85.44;100720.52;1692496;84;21183;-84
2022/05/01 02:13:46;;;;;;;8.58;4.95;;;;;;;5.68;85.50;100724.80;1706756;84;21254;-84
2022/05/01 02:16:55;;;;;;;12.18;4.90;;;;;;;5.73;85.74;100725.25;1707095;84;21273;-83
2022/05/01 02:20:00;;;;;;;9.98;4.95;;;;;;;5.79;85.81;100728.80;1707789;84;21155;-84
2022/05/01 02:23:06;;;;;;;8.05;4.65;;;;;;;5.83;85.88;100724.82;1706377;83;21253;-84
2022/05/01 02:26:13;;;;;;;10.13;5.50;;;;;;;5.90;85.74;100730.05;1707916;84;21625;-84
2022/05/01 02:29:18;;;;;;;8.63;4.80;;;;;;;5.98;85.39;100729.42;1706640;84;21203;-84
2022/05/01 02:32:23;;;;;;;10.60;5.08;;;;;;;6.07;84.65;100736.74;1706633;84;21206;-84
2022/05/01 02:35:28;;;;;;;9.03;5.22;;;;;;;6.18;83.89;100734.42;1707876;84;21155;-85
2022/05/01 02:38:36;;;;;;;11.38;5.95;;;;;;;6.32;83.41;100736.75;1706600;84;21230;-84
2022/05/01 02:41:43;;;;;;;8.00;4.72;;;;;;;6.47;82.78;100736.36;1707869;84;21182;-84
2022/05/01 02:44:48;;;;;;;10.10;5.85;;;;;;;6.57;82.63;100734.52;1707941;84;21223;-84
2022/05/01 02:47:53;;;;;;;11.43;5.62;;;;;;;6.63;82.46;100733.94;1706868;84;21210;-83
2022/05/01 02:51:04;;;;;;;9.25;4.70;;;;;;;6.71;81.60;100738.19;1707781;84;21171;-84
2022/05/01 02:54:07;;;;;;;8.88;4.67;;;;;;;6.82;81.28;100735.35;1707962;84;21218;-84
2022/05/01 02:57:15;;;;;;;14.15;4.87;;;;;;;6.93;81.73;100741.66;1707352;84;21800;-83
2022/05/01 03:00:20;;;;;;;8.43;5.25;;;;;;;7.00;82.11;100746.36;1707921;84;21167;-84
2022/05/01 03:03:26;;;;;;;11.45;5.37;;;;;;;7.07;81.93;100752.11;1706639;84;21207;-84
2022/05/01 03:06:33;;;;;;;8.78;4.90;;;;;;;7.14;81.83;100753.23;1700690;84;21222;-83
2022/05/01 03:09:32;;;;;;;10.30;5.20;;;;;;;7.23;81.59;100754.23;1697633;84;21302;-84
2022/05/01 03:12:25;;;;;;;8.18;5.30;;;;;;;7.30;80.99;100763.05;1697099;84;21254;-84
2022/05/01 03:15:12;;;;;;;9.15;5.40;;;;;;;7.36;80.89;100761.61;1697763;84;21203;-84
2022/05/01 03:24:44;;;;;;;8.60;5.35;;;;;;;7.56;78.27;100768.73;1697681;84;21226;-83
2022/05/01 03:27:50;;;;;;;10.78;4.90;;;;;;;7.66;78.06;100765.49;1697585;84;21757;-84
2022/05/01 03:30:57;;;;;;;8.70;5.10;;;;;;;7.76;77.96;100766.83;1697657;84;21769;-83
2022/05/01 03:34:04;;;;;;;11.63;4.72;;;;;;;7.85;78.05;100763.73;1697666;84;21180;-84
2022/05/01 03:37:11;;;;;;;10.60;4.92;;;;;;;7.92;77.89;100765.73;1697552;84;21227;-83
2022/05/01 03:40:18;;;;;;;12.93;5.42;;;;;;;8.02;77.85;100767.05;1697649;84;21215;-83
2022/05/01 03:43:23;;;;;;;13.85;5.30;;;;;;;8.11;78.12;100759.86;1697712;84;21211;-83
2022/05/01 03:46:29;;;;;;;9.35;5.00;;;;;;;8.20;78.50;100762.54;1697714;84;21175;-83
2022/05/01 03:49:29;;;;;;;9.30;5.22;;;;;;;8.29;78.33;100767.60;1697616;84;21282;-83
2022/05/01 03:52:35;;;;;;;7.65;4.10;;;;;;;8.36;77.98;100766.00;1697807;84;21210;-83
2022/05/01 03:55:39;;;;;;;10.63;5.10;;;;;;;8.48;77.41;100776.22;1697824;84;21176;-83
2022/05/01 03:58:45;;;;;;;8.38;4.65;;;;;;;8.55;77.28;100774.59;1677102;84;21207;-79
2022/05/01 04:01:51;;;;;;;10.43;5.42;;;;;;;8.67;77.25;100776.61;1696243;84;21215;-83
2022/05/01 04:04:59;;;;;;;8.50;5.25;;;;;;;8.75;77.28;100775.83;1697630;84;21235;-84
2022/05/01 04:08:04;;;;;;;9.73;5.53;;;;;;;8.83;77.34;100772.69;1696929;84;21294;-79
2022/05/01 04:11:11;;;;;;;13.95;5.70;;;;;;;8.94;77.48;100776.59;1697443;84;21175;-84
2022/05/01 04:14:18;;;;;;;8.13;5.40;;;;;;;9.05;77.41;100781.46;1697579;84;21179;-84
2022/05/01 04:17:23;;;;;;;9.20;5.42;;;;;;;9.16;77.12;100774.39;1697143;84;21238;-84
2022/05/01 04:20:28;;;;;;;16.97;7.30;;;;;;;9.30;76.83;100775.20;1697050;84;21493;-84
2022/05/01 04:23:28;;;;;;;12.60;5.83;;;;;;;9.45;76.67;100779.09;1696362;84;21226;-84
2022/05/01 04:26:33;;;;;;;10.18;5.80;;;;;;;9.59;76.29;100770.84;1697426;84;21176;-84
2022/05/01 04:29:40;;;;;;;11.12;5.67;;;;;;;9.74;78.25;100777.98;1696442;84;21179;-84
2022/05/01 04:33:04;;;;;;;13.70;4.75;;;;;;;9.88;78.42;100780.13;1696980;84;21207;-85
2022/05/01 04:36:09;;;;;;;8.60;5.17;;;;;;;10.03;77.00;100776.80;1696742;84;21872;-84
2022/05/01 04:39:14;;;;;;;11.15;5.10;;;;;;;10.15;75.63;100772.24;1696119;84;21211;-84
2022/05/01 04:42:21;;;;;;;10.35;5.00;;;;;;;10.30;75.37;100772.52;1697143;84;21831;-84
2022/05/01 04:45:27;;;;;;;7.30;4.47;;;;;;;10.47;74.59;100770.73;1697445;84;21226;-84
2022/05/01 04:48:32;;;;;;;9.00;4.97;;;;;;;10.62;74.30;100769.59;1696365;84;21330;-84
2022/05/01 04:51:39;;;;;;;7.05;4.30;;;;;;;10.77;73.64;100782.11;1696799;84;21207;-84
2022/05/01 04:54:44;;;;;;;8.23;3.90;;;;;;;10.94;73.19;100777.05;1696201;84;21184;-84
2022/05/01 04:57:50;;;;;;;7.50;4.15;;;;;;;11.12;71.67;100785.13;1696735;84;21534;-84
2022/05/01 05:00:58;;;;;;;7.70;3.47;;;;;;;11.28;69.60;100777.44;1697471;84;21179;-84
2022/05/01 05:04:04;;;;;;;9.70;3.33;;;;;;;11.45;68.70;100777.29;1697435;84;21179;-84
2022/05/01 05:07:09;;;;;;;6.28;3.33;;;;;;;11.69;66.58;100786.02;1696637;84;21195;-84
2022/05/01 05:10:16;;;;;;;6.42;3.12;;;;;;;11.96;65.72;100789.46;1711920;84;21171;-84
2022/05/01 05:13:27;;;;;;;4.85;3.10;;;;;;;12.23;64.52;100793.66;1711907;84;21835;-84
2022/05/01 05:16:32;;;;;;;6.42;3.00;;;;;;;12.44;63.71;100792.59;1711786;84;21713;-84
2022/05/01 05:19:39;;;;;;;5.95;2.45;;;;;;;12.63;63.14;100795.43;1713258;84;21203;-85
2022/05/01 05:22:47;;;;;;;7.37;2.72;;;;;;;12.78;61.17;100799.65;1711900;84;21218;-84
2022/05/01 05:25:52;;;;;;;3.35;2.15;;;;;;;12.96;61.29;100799.39;1692127;84;21854;-85
2022/05/01 05:28:59;;;;;;;5.47;2.98;;;;;;;13.08;59.04;100792.47;1712844;84;21175;-85
2022/05/01 05:32:05;;;;;;;6.12;2.87;;;;;;;13.16;58.47;100794.29;1711864;83;21229;-85
2022/05/01 05:35:12;;;;;;;4.62;2.70;;;;;;;13.30;57.61;100792.17;1713211;84;21250;-83
2022/05/01 05:38:19;;;;;;;2.52;1.70;;;;;;;13.43;56.70;100791.05;1712466;84;21210;-83
2022/05/01 05:41:24;;;;;;;5.25;2.30;;;;;;;13.64;54.05;100793.63;1713179;84;21182;-83
2022/05/01 05:44:29;;;;;;;4.83;2.35;;;;;;;13.81;52.50;100795.20;1712947;84;21171;-83
2022/05/01 05:47:35;;;;;;;3.45;1.75;;;;;;;14.00;50.82;100793.81;1712709;84;21685;-82
2022/05/01 05:50:41;;;;;;;5.42;2.10;;;;;;;14.17;51.00;100800.02;1712107;84;21179;-83
2022/05/01 05:53:46;;;;;;;5.35;1.62;;;;;;;14.33;49.71;100796.55;1712044;84;21218;-83
2022/05/01 05:56:53;;;;;;;8.95;2.20;;;;;;;14.43;48.76;100799.02;1713185;84;21265;-83
2022/05/01 05:59:58;;;;;;;7.85;2.20;;;;;;;14.50;48.25;100797.27;1712559;84;21210;-82
2022/05/01 06:03:06;;;;;;;5.92;1.92;;;;;;;14.62;49.18;100798.16;1712414;84;21242;-83
2022/05/01 06:06:11;;;;;;;8.20;2.02;;;;;;;14.71;47.40;100795.11;1713131;84;21720;-83
2022/05/01 06:09:16;;;;;;;4.92;1.50;;;;;;;14.82;47.85;100796.02;1706251;84;21211;-83
2022/05/01 06:12:21;;;;;;;2.15;1.40;;;;;;;14.91;46.52;100798.11;1697194;84;21203;-83
2022/05/01 06:15:28;;;;;;;5.62;1.70;;;;;;;14.96;45.07;100801.17;1696257;84;21246;-83
2022/05/01 06:18:36;;;;;;;3.05;1.65;;;;;;;15.03;45.46;100803.98;1696478;84;21227;-84
2022/05/01 06:21:42;;;;;;;4.22;1.70;;;;;;;15.06;45.13;100802.23;1695995;84;21761;-83
2022/05/01 06:24:48;;;;;;;5.20;1.70;;;;;;;15.08;44.98;100798.75;1673428;84;21729;-83
2022/05/01 06:27:52;;;;;;;3.60;1.20;;;;;;;15.17;42.91;100797.59;1696947;84;21255;-83
2022/05/01 06:30:53;;;;;;;2.20;1.30;;;;;;;15.21;42.13;100805.80;1696582;84;21748;-83
2022/05/01 06:33:58;;;;;;;2.93;1.60;;;;;;;15.28;42.07;100808.09;1696478;84;21195;-84
2022/05/01 06:37:04;;;;;;;2.27;1.57;;;;;;;15.32;41.23;100815.45;1697288;84;21246;-84
2022/05/01 06:40:09;;;;;;;2.83;1.27;;;;;;;15.38;41.38;100813.80;1697260;84;21207;-84
2022/05/01 06:43:19;;;;;;;6.00;1.80;;;;;;;15.49;40.71;100819.67;1696690;84;21215;-83
2022/05/01 06:46:40;;;;;;;3.65;1.90;;;;;;;15.55;40.97;100820.26;1697460;84;21147;-83
2022/05/01 06:49:47;;;;;;;5.62;1.87;;;;;;;15.56;40.24;100817.82;1697465;84;21227;-83
2022/05/01 06:52:52;;;;;;;12.50;1.90;;;;;;;15.57;40.14;100814.04;1697110;84;21167;-84
2022/05/01 06:55:59;;;;;;;3.08;1.62;;;;;;;15.68;41.05;100813.21;1696145;84;21701;-83
2022/05/01 06:59:04;;;;;;;2.83;1.95;;;;;;;15.85;40.51;100816.00;1697341;84;21160;-84
2022/05/01 07:02:10;;;;;;;5.58;2.22;;;;;;;16.07;38.87;100816.83;1697296;84;21811;-84
2022/05/01 07:05:18;;;;;;;4.80;1.90;;;;;;;16.25;40.42;100818.57;1696068;84;21183;-84
2022/05/01 07:08:24;;;;;;;5.62;1.85;;;;;;;16.31;38.56;100816.91;1696811;84;21219;-83
2022/05/01 07:11:30;;;;;;;3.30;1.62;;;;;;;16.36;37.35;100812.48;1705411;84;21270;-79
2022/05/01 07:14:36;;;;;;;1.77;1.12;;;;;;;16.54;37.63;100814.73;1706600;84;21756;-79
2022/05/01 07:17:36;;;;;;;2.72;1.10;;;;;;;16.59;36.27;100816.34;1706733;84;21474;-79
2022/05/01 07:20:30;;;;;;;6.35;2.00;;;;;;;16.50;36.21;100817.56;1706720;84;21266;-79
2022/05/01 07:23:21;;;;;;;2.30;1.37;;;;;;;16.40;36.03;100815.70;1706575;84;21842;-79
2022/05/01 07:26:11;;;;;;;2.67;1.30;;;;;;;16.34;36.31;100821.51;1707731;84;21190;-79
2022/05/01 07:29:17;;;;;;;5.05;1.32;;;;;;;16.35;36.60;100818.21;1692610;84;21791;-79
2022/05/01 07:32:17;;;;;;;2.08;1.30;;;;;;;16.40;37.18;100818.45;1706816;84;21764;-79
2022/05/01 07:35:21;;;;;;;3.75;1.50;;;;;;;16.46;36.21;100819.02;1707975;84;21238;-79
2022/05/01 07:38:29;;;;;;;3.47;1.20;;;;;;;16.49;36.51;100821.39;1706919;84;21182;-79
2022/05/01 07:41:36;;;;;;;10.05;1.77;;;;;;;16.55;35.12;100821.09;1707129;84;21314;-80
2022/05/01 07:44:43;;;;;;;2.08;1.20;;;;;;;16.64;35.43;100820.41;1706510;84;21258;-80
2022/05/01 07:47:47;;;;;;;1.80;1.00;;;;;;;16.76;35.21;100815.53;1707187;84;21206;-80
2022/05/01 07:50:53;;;;;;;8.33;1.22;;;;;;;16.98;35.68;100818.16;1692254;84;21294;-80
2022/05/01 07:53:58;;;;;;;2.67;1.52;;;;;;;17.07;35.17;100816.39;1707582;84;21869;-79
2022/05/01 07:57:04;;;;;;;3.77;1.30;;;;;;;17.03;35.54;100818.39;1706544;83;21242;-79
2022/05/01 08:00:09;;;;;;;4.42;1.45;;;;;;;17.03;35.72;100820.66;1707994;84;21171;-79
2022/05/01 08:06:38;;;;;;;4.00;1.50;;;;;;;17.21;35.52;100816.45;1707705;84;21159;-79
2022/05/01 08:09:44;;;;;;;3.37;1.37;;;;;;;17.28;37.29;100816.80;1707218;84;21258;-79
2022/05/01 08:12:49;;;;;;;3.67;1.47;;;;;;;17.45;34.63;100809.49;1697155;84;21234;-79
2022/05/01 08:15:55;;;;;;;1.60;1.12;;;;;;;17.55;34.44;100802.52;1672951;84;21203;-79
2022/05/01 08:22:25;;;;;;;3.27;1.40;;;;;;;17.67;32.23;100807.41;1696704;84;21278;-80
2022/05/01 08:25:29;;;;;;;7.90;1.55;;;;;;;17.50;32.23;100803.69;1696418;84;21254;-79
2022/05/01 08:28:28;;;;;;;4.50;1.42;;;;;;;17.56;32.76;100795.92;1696418;84;21251;-80
2022/05/01 08:31:33;;;;;;;4.97;1.22;;;;;;;17.69;33.42;100790.06;1697326;84;21705;-79
2022/05/01 08:34:38;;;;;;;1.65;1.40;;;;;;;17.69;31.48;100789.56;1697563;84;21172;-80
2022/05/01 08:37:44;;;;;;;2.27;1.10;;;;;;;17.62;31.51;100792.30;1696858;84;21203;-80
2022/05/01 08:40:52;;;;;;;5.40;1.20;;;;;;;17.59;31.70;100788.56;1696501;84;21195;-80
2022/05/01 08:43:58;;;;;;;3.45;1.30;;;;;;;17.50;31.32;100783.44;1697273;84;21223;-79
2022/05/01 08:47:09;;;;;;;1.95;1.07;;;;;;;17.44;31.60;100782.37;1697313;84;21215;-80
2022/05/01 08:50:09;;;;;;;4.33;1.15;;;;;;;17.29;31.95;100779.80;1697726;84;21302;-79
2022/05/01 08:53:02;;;;;;;1.30;0.82;;;;;;;17.25;31.78;100776.27;1696867;84;21226;-80
2022/05/01 08:56:10;;;;;;;2.90;1.50;;;;;;;17.29;33.02;100784.48;1696488;84;21219;-80
2022/05/01 08:59:20;;;;;;;2.50;1.20;;;;;;;17.26;33.28;100780.73;1697654;84;21168;-79
2022/05/01 09:02:26;;;;;;;5.15;1.27;;;;;;;17.18;33.28;100777.66;1697246;84;21187;-79
2022/05/01 09:05:31;;;;;;;2.98;1.20;;;;;;;17.22;33.57;100769.77;1697437;84;21180;-79
2022/05/01 09:08:38;;;;;;;5.28;1.72;;;;;;;17.22;34.85;100775.30;1696197;84;21218;-80
2022/05/01 09:15:06;;;;;;;2.45;1.10;;;;;;;17.11;32.70;100771.23;1713203;84;21863;-79
2022/05/01 09:18:15;;;;;;;2.30;1.00;;;;;;;17.18;32.45;100764.36;1712292;84;21720;-79
2022/05/01 09:21:21;;;;;;;1.75;1.15;;;;;;;17.27;34.29;100775.55;1711798;84;21749;-79
2022/05/01 09:24:35;;;;;;;2.17;1.32;;;;;;;17.38;32.04;100758.34;1713031;84;21562;-78
2022/05/01 09:27:41;;;;;;;3.08;1.30;;;;;;;17.52;31.36;100752.30;1713165;84;21339;-78
2022/05/01 09:30:49;;;;;;;4.83;1.40;;;;;;;17.58;31.98;100754.20;1713323;84;21178;-79
2022/05/01 09:33:55;;;;;;;3.67;1.60;;;;;;;17.45;32.17;100752.27;1711723;84;21226;-79
2022/05/01 09:37:00;;;;;;;2.98;1.42;;;;;;;17.29;31.98;100750.77;1713122;84;21329;-79
2022/05/01 09:40:06;;;;;;;5.00;1.80;;;;;;;17.16;32.71;100749.35;1713026;84;21242;-79
2022/05/01 09:43:12;;;;;;;5.15;1.98;;;;;;;17.16;32.95;100754.03;1702188;83;21177;-79
2022/05/01 09:46:32;;;;;;;7.78;1.92;;;;;;;17.17;31.68;100752.43;1714872;83;21205;-79
2022/05/01 09:49:37;;;;;;;3.33;1.50;;;;;;;17.22;32.06;100751.30;1714630;83;21187;-79
2022/05/01 09:53:01;;;;;;;3.05;1.70;;;;;;;17.25;32.68;100756.92;1714051;82;21194;-79
2022/05/01 09:56:08;;;;;;;7.03;1.42;;;;;;;17.15;33.13;100751.80;1714596;83;21206;-80
2022/05/01 09:59:06;;;;;;;2.27;1.20;;;;;;;17.08;32.35;100743.50;1714557;83;21214;-79
2022/05/01 10:02:12;;;;;;;3.02;1.47;;;;;;;17.16;33.57;100745.20;1689739;82;21238;-79
2022/05/01 10:05:17;;;;;;;3.42;1.40;;;;;;;17.15;33.49;100732.98;1714237;83;21843;-79
2022/05/01 10:08:24;;;;;;;2.40;1.40;;;;;;;17.08;32.96;100735.21;1714180;82;21222;-79
2022/05/01 10:11:31;;;;;;;3.25;1.60;;;;;;;16.91;32.43;100746.31;1714751;83;21210;-79
2022/05/01 10:14:37;;;;;;;3.12;1.80;;;;;;;16.73;32.05;100736.36;1715750;82;21197;-79
2022/05/01 10:17:35;;;;;;;2.95;1.55;;;;;;;16.68;34.12;100741.08;1717506;82;21367;-84
2022/05/01 10:20:42;;;;;;;2.10;1.50;;;;;;;16.65;33.41;100740.10;1717662;83;21150;-84
2022/05/01 10:23:48;;;;;;;5.62;1.67;;;;;;;16.65;31.15;100736.49;1717288;82;21213;-80
2022/05/01 10:27:04;;;;;;;4.12;1.40;;;;;;;16.66;31.63;100738.22;1716653;82;21284;-84
2022/05/01 10:33:44;;;;;;;3.33;1.80;;;;;;;16.75;33.82;100736.48;1716465;82;21790;-79
2022/05/01 10:37:04;;;;;;;2.22;1.40;;;;;;;16.80;33.18;100731.72;1716707;82;21264;-79
2022/05/01 10:40:10;;;;;;;3.67;1.70;;;;;;;16.84;32.85;100728.84;1694815;82;21692;-79
2022/05/01 10:43:41;;;;;;;2.37;1.20;;;;;;;16.94;33.78;100717.39;1717283;82;21897;-79
2022/05/01 10:46:48;;;;;;;2.17;1.47;;;;;;;17.14;34.99;100725.23;1717654;82;21161;-79
2022/05/01 10:49:55;;;;;;;3.33;1.80;;;;;;;17.23;32.86;100714.30;1697673;83;21197;-80
2022/05/01 10:53:16;;;;;;;3.55;1.47;;;;;;;17.33;32.78;100718.03;1716826;82;21735;-79
2022/05/01 10:56:28;;;;;;;4.58;1.92;;;;;;;17.52;31.81;100713.05;1717699;83;21149;-79
2022/05/01 10:59:46;;;;;;;3.30;1.40;;;;;;;17.73;31.19;100703.70;1717030;83;21165;-79
2022/05/01 11:02:58;;;;;;;16.27;6.75;;;;;;;17.84;32.54;100709.98;1716889;82;21181;-79
2022/05/01 11:06:16;;;;;;;2.92;1.77;;;;;;;17.86;31.97;100705.61;1716184;83;21168;-80
2022/05/01 11:09:31;;;;;;;2.80;1.50;;;;;;;17.95;30.95;100703.48;1717504;83;21161;-79
2022/05/01 11:12:38;;;;;;;3.80;1.20;;;;;;;18.06;30.83;100702.27;1716867;82;21193;-79
2022/05/01 11:15:45;;;;;;;2.25;1.12;;;;;;;18.11;30.63;100708.55;1716676;82;21295;-79
2022/05/01 11:18:55;;;;;;;7.75;3.22;;;;;;;18.08;31.02;100701.54;1680899;83;21213;-79
2022/05/01 11:22:02;;;;;;;4.97;1.67;;;;;;;18.19;30.79;100696.40;1717342;82;21205;-79
2022/05/01 11:25:07;;;;;;;6.17;1.50;;;;;;;18.33;31.16;100693.38;1716553;83;21201;-79
2022/05/01 11:28:13;;;;;;;4.97;1.30;;;;;;;18.29;30.82;100690.72;1717410;82;21691;-79
2022/05/01 11:31:46;;;;;;;3.77;1.47;;;;;;;18.25;30.91;100686.68;1717558;83;21154;-79
2022/05/01 11:34:59;;;;;;;3.17;1.75;;;;;;;18.27;32.39;100693.41;1716864;83;21158;-79
2022/05/01 11:38:15;;;;;;;7.15;2.15;;;;;;;18.27;30.66;100679.02;1716541;82;21189;-80
2022/05/01 11:41:21;;;;;;;2.83;1.57;;;;;;;18.36;31.62;100689.33;1717563;83;21204;-79
2022/05/01 11:44:32;;;;;;;3.90;1.50;;;;;;;18.32;32.04;100679.22;1716134;83;21758;-79
2022/05/01 11:47:40;;;;;;;3.62;1.60;;;;;;;18.34;32.00;100681.22;1716913;82;21225;-79
2022/05/01 11:50:45;;;;;;;4.85;1.70;;;;;;;18.26;31.70;100676.48;1716328;83;21200;-79
2022/05/01 11:53:50;;;;;;;2.65;1.40;;;;;;;18.17;32.17;100681.41;1716102;82;21182;-79
2022/05/01 12:03:47;;;;;;;3.12;2.00;;;;;;;18.30;30.25;100679.98;1717356;82;21738;-79
2022/05/01 12:06:54;;;;;;;2.47;1.40;;;;;;;18.42;29.39;100665.45;1697377;82;21530;-79
2022/05/01 12:09:59;;;;;;;3.87;1.57;;;;;;;18.55;28.48;100667.63;1717468;83;21185;-79
2022/05/01 12:13:04;;;;;;;5.65;1.30;;;;;;;18.65;29.22;100671.31;1716361;82;21173;-79
2022/05/01 12:16:05;;;;;;;3.08;1.45;;;;;;;18.66;28.72;100673.00;1715947;82;21221;-79
2022/05/01 12:19:11;;;;;;;3.67;1.75;;;;;;;18.69;29.04;100668.98;1694711;84;21166;-79
2022/05/01 12:22:18;;;;;;;7.65;2.10;;;;;;;18.74;29.46;100665.02;1716827;83;21812;-84
2022/05/01 12:25:25;;;;;;;3.17;1.42;;;;;;;18.74;30.23;100653.93;1717204;83;21798;-84
2022/05/01 12:28:31;;;;;;;3.67;1.35;;;;;;;18.67;29.69;100661.38;1694433;83;21208;-85
2022/05/01 12:31:36;;;;;;;135.93;80.57;;;;;;;18.59;29.94;100652.27;1677422;82;21181;-84
2022/05/01 12:35:04;;;;;;;8.43;4.03;;;;;;;18.57;28.70;100656.31;1716902;83;21192;-84
2022/05/01 12:38:08;;;;;;;2.00;1.40;;;;;;;18.53;28.72;100650.36;1715610;82;21251;-84
2022/05/01 12:44:48;;;;;;;2.75;1.35;;;;;;;18.32;32.16;100645.14;1714923;83;21860;-85
2022/05/01 12:47:57;;;;;;;5.50;1.45;;;;;;;18.16;32.36;100641.45;1694839;83;21291;-84
2022/05/01 12:51:04;;;;;;;2.95;1.25;;;;;;;18.03;34.51;100636.30;1715605;83;21236;-84
2022/05/01 12:54:19;;;;;;;3.08;1.60;;;;;;;17.91;33.52;100637.17;1717017;83;21686;-84
2022/05/01 12:57:40;;;;;;;2.72;1.30;;;;;;;17.78;31.81;100627.82;1716577;82;21208;-84
2022/05/01 13:00:53;;;;;;;6.12;1.60;;;;;;;17.69;33.84;100632.38;1717036;83;21179;-84
2022/05/01 13:03:58;;;;;;;3.15;1.50;;;;;;;17.54;34.24;100627.94;1716834;83;21180;-84
2022/05/01 13:07:04;;;;;;;1.98;1.07;;;;;;;17.52;34.12;100630.08;1715511;82;21825;-84
2022/05/01 13:10:10;;;;;;;5.25;1.72;;;;;;;17.51;33.97;100628.92;1716973;83;21759;-84
2022/05/01 13:13:11;;;;;;;3.33;1.40;;;;;;;17.49;32.38;100632.41;1716056;82;21232;-84
2022/05/01 13:16:16;;;;;;;2.02;1.10;;;;;;;17.48;32.11;100635.72;1715930;82;21164;-84
2022/05/01 13:19:26;;;;;;;3.12;1.20;;;;;;;17.39;32.16;100630.08;1709288;84;21217;-84
2022/05/01 13:22:31;;;;;;;1.85;1.20;;;;;;;17.37;31.56;100629.45;1707897;82;21878;-84
2022/05/01 13:25:37;;;;;;;3.02;1.27;;;;;;;17.38;30.75;100630.61;1709091;84;21738;-84
2022/05/01 13:28:44;;;;;;;3.55;1.42;;;;;;;17.43;31.71;100624.45;1708006;82;21326;-83
2022/05/01 13:31:50;;;;;;;4.08;1.32;;;;;;;17.47;32.29;100620.73;1709455;82;21177;-84
2022/05/01 13:34:55;;;;;;;2.33;1.12;;;;;;;17.48;31.17;100615.51;1709493;84;21181;-84
2022/05/01 13:37:55;;;;;;;5.97;1.50;;;;;;;17.47;30.60;100607.75;1708082;82;21192;-84
2022/05/01 13:47:48;;;;;;;1.12;0.80;;;;;;;17.49;30.82;100605.61;1708752;82;21304;-84
2022/05/01 13:50:53;;;;;;;7.03;3.35;;;;;;;17.44;31.50;100610.93;1709394;84;21631;-84
2022/05/01 13:54:01;;;;;;;3.40;1.42;;;;;;;17.41;31.22;100599.44;1707828;82;21168;-84
2022/05/01 13:57:07;;;;;;;1.37;1.12;;;;;;;17.45;30.84;100601.56;1707828;82;21786;-84
2022/05/01 14:00:14;;;;;;;3.87;1.20;;;;;;;17.52;30.99;100604.34;1708774;84;21297;-84
2022/05/01 14:03:20;;;;;;;2.90;1.40;;;;;;;17.52;30.00;100608.48;1708373;82;21192;-84
2022/05/01 14:06:25;;;;;;;3.08;1.47;;;;;;;17.54;30.62;100608.58;1708052;84;21204;-84
2022/05/01 14:09:30;;;;;;;1.35;1.10;;;;;;;17.49;31.07;100604.22;1709374;84;21173;-84
2022/05/01 14:12:30;;;;;;;3.05;1.27;;;;;;;17.41;32.12;100603.09;1708854;82;21201;-84
2022/05/01 14:15:23;;;;;;;1.27;1.07;;;;;;;17.37;32.33;100601.81;1708684;84;21761;-84
2022/05/01 14:18:17;;;;;;;1.80;1.25;;;;;;;17.33;33.42;100602.76;1707918;82;21335;-84
2022/05/01 14:21:24;;;;;;;12.68;2.42;;;;;;;17.28;32.82;100602.55;1707088;84;21193;-85
2022/05/01 14:24:29;;;;;;;1.92;1.20;;;;;;;17.24;34.24;100600.42;1687668;84;21221;-84
2022/05/01 14:27:34;;;;;;;3.27;1.25;;;;;;;17.19;33.89;100597.45;1685861;84;21794;-84
2022/05/01 14:30:41;;;;;;;2.47;1.37;;;;;;;17.13;34.49;100602.45;1706515;84;21224;-84
2022/05/01 14:33:52;;;;;;;3.58;1.32;;;;;;;17.04;35.56;100598.52;1705525;83;21686;-84
2022/05/01 14:37:04;;;;;;;5.60;1.45;;;;;;;16.98;35.36;100595.19;1706447;83;21240;-84
2022/05/01 14:40:10;;;;;;;2.90;1.45;;;;;;;16.95;35.63;100598.40;1706922;84;21344;-84
2022/05/01 14:43:20;;;;;;;2.67;1.32;;;;;;;16.91;36.88;100600.41;1706004;83;21209;-84
2022/05/01 14:46:25;;;;;;;3.80;1.95;;;;;;;16.84;36.34;100597.62;1706029;84;21774;-84
2022/05/01 14:49:52;;;;;;;6.45;1.50;;;;;;;16.74;36.86;100595.80;1706832;84;21731;-84
2022/05/01 14:53:00;;;;;;;3.95;1.87;;;;;;;16.68;36.81;100598.84;1706168;83;21205;-84
2022/05/01 14:56:06;;;;;;;2.42;1.40;;;;;;;16.62;36.38;100581.74;1699504;84;21169;-85
2022/05/01 15:09:05;;;;;;;4.17;1.47;;;;;;;16.41;37.74;100585.49;1632429;87;21211;-85
2022/05/01 15:11:57;;;;;;;3.75;1.65;;;;;;;16.26;38.11;100591.18;1648271;86;21226;-85
2022/05/01 15:15:04;;;;;;;2.65;1.50;;;;;;;16.19;38.32;100588.09;1648499;87;21792;-85
2022/05/01 15:18:13;;;;;;;6.70;1.30;;;;;;;16.13;39.00;100586.14;1648218;84;21266;-85
2022/05/01 15:25:22;;;;;;;2.12;1.05;;;;;;;15.99;38.56;100586.08;1686279;85;21304;-85
2022/05/01 15:28:27;;;;;;;2.05;1.20;;;;;;;15.85;38.48;100587.06;1685203;84;21215;-84